sensor_id;sensor_type;location;lat;lon;timestamp;temperature;humidity
70336;SHT31;57756;47.408;18.940;2022-11-20T00:01:18;2.09;89.98
70336;SHT31;57756;47.408;18.940;2022-11-20T00:03:44;2.06;90.50
70336;SHT31;57756;47.408;18.940;2022-11-20T00:06:13;2.07;90.08
70336;SHT31;57756;47.408;18.940;2022-11-20T00:08:39;2.06;90.56
70336;SHT31;57756;47.408;18.940;2022-11-20T00:11:09;2.03;90.97
70336;SHT31;57756;47.408;18.940;2022-11-20T00:13:35;2.02;90.84
70336;SHT31;57756;47.408;18.940;2022-11-20T00:16:02;2.00;89.80
70336;SHT31;57756;47.408;18.940;2022-11-20T00:18:28;1.98;89.22
70336;SHT31;57756;47.408;18.940;2022-11-20T00:21:00;1.95;90.23
70336;SHT31;57756;47.408;18.940;2022-11-20T00:23:26;2.02;90.47
70336;SHT31;57756;47.408;18.940;2022-11-20T00:25:51;1.98;89.88
70336;SHT31;57756;47.408;18.940;2022-11-20T00:28:17;1.96;89.89
70336;SHT31;57756;47.408;18.940;2022-11-20T00:30:42;1.98;89.56
70336;SHT31;57756;47.408;18.940;2022-11-20T00:33:08;1.87;89.73
70336;SHT31;57756;47.408;18.940;2022-11-20T00:35:33;1.93;89.54
70336;SHT31;57756;47.408;18.940;2022-11-20T00:37:59;1.96;89.91
70336;SHT31;57756;47.408;18.940;2022-11-20T00:40:24;1.98;89.60
70336;SHT31;57756;47.408;18.940;2022-11-20T00:42:50;1.92;89.30
70336;SHT31;57756;47.408;18.940;2022-11-20T00:45:15;1.93;89.74
70336;SHT31;57756;47.408;18.940;2022-11-20T00:47:40;1.93;89.76
70336;SHT31;57756;47.408;18.940;2022-11-20T00:50:06;1.93;89.39
70336;SHT31;57756;47.408;18.940;2022-11-20T00:52:32;1.99;89.30
70336;SHT31;57756;47.408;18.940;2022-11-20T00:54:57;1.89;89.30
70336;SHT31;57756;47.408;18.940;2022-11-20T00:57:23;1.87;89.19
70336;SHT31;57756;47.408;18.940;2022-11-20T00:59:48;1.85;90.31
70336;SHT31;57756;47.408;18.940;2022-11-20T01:02:14;1.87;90.58
70336;SHT31;57756;47.408;18.940;2022-11-20T01:04:42;1.86;90.44
70336;SHT31;57756;47.408;18.940;2022-11-20T01:07:07;1.89;90.21
70336;SHT31;57756;47.408;18.940;2022-11-20T01:09:33;1.87;89.77
70336;SHT31;57756;47.408;18.940;2022-11-20T01:11:58;1.86;89.52
70336;SHT31;57756;47.408;18.940;2022-11-20T01:14:24;1.86;89.87
70336;SHT31;57756;47.408;18.940;2022-11-20T01:16:51;1.71;89.56
70336;SHT31;57756;47.408;18.940;2022-11-20T01:19:19;1.72;89.93
70336;SHT31;57756;47.408;18.940;2022-11-20T01:21:49;1.79;90.65
70336;SHT31;57756;47.408;18.940;2022-11-20T01:24:16;1.79;89.81
70336;SHT31;57756;47.408;18.940;2022-11-20T01:26:43;1.79;89.73
70336;SHT31;57756;47.408;18.940;2022-11-20T01:29:21;1.82;90.44
70336;SHT31;57756;47.408;18.940;2022-11-20T01:31:47;1.86;89.85
70336;SHT31;57756;47.408;18.940;2022-11-20T01:34:15;1.82;89.52
70336;SHT31;57756;47.408;18.940;2022-11-20T01:36:42;1.83;90.60
70336;SHT31;57756;47.408;18.940;2022-11-20T01:39:17;1.82;89.82
70336;SHT31;57756;47.408;18.940;2022-11-20T01:41:43;1.85;90.66
70336;SHT31;57756;47.408;18.940;2022-11-20T01:44:54;1.92;90.48
70336;SHT31;57756;47.408;18.940;2022-11-20T01:47:25;1.98;91.20
70336;SHT31;57756;47.408;18.940;2022-11-20T01:50:03;1.89;90.17
70336;SHT31;57756;47.408;18.940;2022-11-20T01:52:42;1.93;90.43
70336;SHT31;57756;47.408;18.940;2022-11-20T01:55:19;1.96;91.65
70336;SHT31;57756;47.408;18.940;2022-11-20T01:57:45;1.96;91.35
70336;SHT31;57756;47.408;18.940;2022-11-20T02:00:15;1.93;91.46
70336;SHT31;57756;47.408;18.940;2022-11-20T02:02:45;1.95;91.59
70336;SHT31;57756;47.408;18.940;2022-11-20T02:05:32;1.95;91.23
70336;SHT31;57756;47.408;18.940;2022-11-20T02:07:59;1.96;91.31
70336;SHT31;57756;47.408;18.940;2022-11-20T02:10:26;2.02;91.61
70336;SHT31;57756;47.408;18.940;2022-11-20T02:12:52;2.00;91.41
70336;SHT31;57756;47.408;18.940;2022-11-20T02:15:36;1.98;91.90
70336;SHT31;57756;47.408;18.940;2022-11-20T02:18:02;1.90;92.22
70336;SHT31;57756;47.408;18.940;2022-11-20T02:20:27;1.95;92.59
70336;SHT31;57756;47.408;18.940;2022-11-20T02:22:57;1.95;92.29
70336;SHT31;57756;47.408;18.940;2022-11-20T02:25:26;1.96;92.82
70336;SHT31;57756;47.408;18.940;2022-11-20T02:27:52;2.02;92.70
70336;SHT31;57756;47.408;18.940;2022-11-20T02:30:18;2.00;92.46
70336;SHT31;57756;47.408;18.940;2022-11-20T02:32:44;2.02;92.79
70336;SHT31;57756;47.408;18.940;2022-11-20T02:37:57;2.02;92.86
70336;SHT31;57756;47.408;18.940;2022-11-20T02:40:24;2.02;92.46
70336;SHT31;57756;47.408;18.940;2022-11-20T02:42:53;1.92;92.93
70336;SHT31;57756;47.408;18.940;2022-11-20T02:45:19;1.95;93.02
70336;SHT31;57756;47.408;18.940;2022-11-20T02:47:44;1.93;92.59
70336;SHT31;57756;47.408;18.940;2022-11-20T02:50:10;1.99;92.93
70336;SHT31;57756;47.408;18.940;2022-11-20T02:52:36;1.96;92.98
70336;SHT31;57756;47.408;18.940;2022-11-20T02:55:01;2.03;92.64
70336;SHT31;57756;47.408;18.940;2022-11-20T02:57:27;1.96;92.80
70336;SHT31;57756;47.408;18.940;2022-11-20T02:59:53;2.02;92.90
70336;SHT31;57756;47.408;18.940;2022-11-20T03:02:18;2.00;92.69
70336;SHT31;57756;47.408;18.940;2022-11-20T03:04:44;2.02;93.48
70336;SHT31;57756;47.408;18.940;2022-11-20T03:07:09;2.09;92.99
70336;SHT31;57756;47.408;18.940;2022-11-20T03:09:35;2.09;92.86
70336;SHT31;57756;47.408;18.940;2022-11-20T03:12:01;2.10;92.80
70336;SHT31;57756;47.408;18.940;2022-11-20T03:14:26;2.11;92.37
70336;SHT31;57756;47.408;18.940;2022-11-20T03:16:52;2.16;92.32
70336;SHT31;57756;47.408;18.940;2022-11-20T03:19:17;2.13;92.53
70336;SHT31;57756;47.408;18.940;2022-11-20T03:21:43;2.13;92.50
70336;SHT31;57756;47.408;18.940;2022-11-20T03:24:08;2.20;92.48
70336;SHT31;57756;47.408;18.940;2022-11-20T03:26:34;2.16;92.18
70336;SHT31;57756;47.408;18.940;2022-11-20T03:29:01;2.20;92.35
70336;SHT31;57756;47.408;18.940;2022-11-20T03:31:32;2.24;91.91
70336;SHT31;57756;47.408;18.940;2022-11-20T03:33:58;2.21;91.72
70336;SHT31;57756;47.408;18.940;2022-11-20T03:36:25;2.21;92.25
70336;SHT31;57756;47.408;18.940;2022-11-20T03:38:52;2.23;92.67
70336;SHT31;57756;47.408;18.940;2022-11-20T03:41:25;2.26;91.85
70336;SHT31;57756;47.408;18.940;2022-11-20T03:43:56;2.26;91.98
70336;SHT31;57756;47.408;18.940;2022-11-20T03:46:22;2.28;92.38
70336;SHT31;57756;47.408;18.940;2022-11-20T03:48:48;2.27;92.14
70336;SHT31;57756;47.408;18.940;2022-11-20T03:51:16;2.30;91.72
70336;SHT31;57756;47.408;18.940;2022-11-20T03:53:43;2.30;92.33
70336;SHT31;57756;47.408;18.940;2022-11-20T03:56:10;2.28;91.99
70336;SHT31;57756;47.408;18.940;2022-11-20T03:58:36;2.33;92.82
70336;SHT31;57756;47.408;18.940;2022-11-20T04:01:06;2.33;91.84
70336;SHT31;57756;47.408;18.940;2022-11-20T04:03:32;2.30;91.80
70336;SHT31;57756;47.408;18.940;2022-11-20T04:06:11;2.30;91.68
70336;SHT31;57756;47.408;18.940;2022-11-20T04:08:37;2.26;91.24
70336;SHT31;57756;47.408;18.940;2022-11-20T04:11:12;2.33;91.96
70336;SHT31;57756;47.408;18.940;2022-11-20T04:13:39;2.40;92.47
70336;SHT31;57756;47.408;18.940;2022-11-20T04:16:09;2.41;93.35
70336;SHT31;57756;47.408;18.940;2022-11-20T04:18:35;2.42;92.51
70336;SHT31;57756;47.408;18.940;2022-11-20T04:21:00;2.40;91.71
70336;SHT31;57756;47.408;18.940;2022-11-20T04:23:26;2.41;91.89
70336;SHT31;57756;47.408;18.940;2022-11-20T04:25:52;2.44;92.01
70336;SHT31;57756;47.408;18.940;2022-11-20T04:28:18;2.45;92.51
70336;SHT31;57756;47.408;18.940;2022-11-20T04:30:44;2.41;93.34
70336;SHT31;57756;47.408;18.940;2022-11-20T04:33:09;2.41;92.84
70336;SHT31;57756;47.408;18.940;2022-11-20T04:35:35;2.45;92.27
70336;SHT31;57756;47.408;18.940;2022-11-20T04:38:01;2.52;92.50
70336;SHT31;57756;47.408;18.940;2022-11-20T04:40:27;2.49;92.84
70336;SHT31;57756;47.408;18.940;2022-11-20T04:42:53;2.51;93.24
70336;SHT31;57756;47.408;18.940;2022-11-20T04:45:19;2.49;92.09
70336;SHT31;57756;47.408;18.940;2022-11-20T04:47:44;2.54;92.44
70336;SHT31;57756;47.408;18.940;2022-11-20T04:50:10;2.54;93.21
70336;SHT31;57756;47.408;18.940;2022-11-20T04:52:35;2.54;91.91
70336;SHT31;57756;47.408;18.940;2022-11-20T04:55:01;2.58;93.81
70336;SHT31;57756;47.408;18.940;2022-11-20T04:57:26;2.57;93.89
70336;SHT31;57756;47.408;18.940;2022-11-20T04:59:52;2.54;92.84
70336;SHT31;57756;47.408;18.940;2022-11-20T05:02:17;2.58;92.60
70336;SHT31;57756;47.408;18.940;2022-11-20T05:04:43;2.59;92.79
70336;SHT31;57756;47.408;18.940;2022-11-20T05:07:08;2.64;94.01
70336;SHT31;57756;47.408;18.940;2022-11-20T05:09:34;2.66;93.96
70336;SHT31;57756;47.408;18.940;2022-11-20T05:11:59;2.65;93.85
70336;SHT31;57756;47.408;18.940;2022-11-20T05:14:25;2.64;94.18
70336;SHT31;57756;47.408;18.940;2022-11-20T05:16:50;2.68;94.41
70336;SHT31;57756;47.408;18.940;2022-11-20T05:19:15;2.69;93.48
70336;SHT31;57756;47.408;18.940;2022-11-20T05:21:41;2.68;92.90
70336;SHT31;57756;47.408;18.940;2022-11-20T05:24:06;2.65;92.94
70336;SHT31;57756;47.408;18.940;2022-11-20T05:26:32;2.65;93.05
70336;SHT31;57756;47.408;18.940;2022-11-20T05:28:57;2.64;91.36
70336;SHT31;57756;47.408;18.940;2022-11-20T05:31:24;2.64;92.80
70336;SHT31;57756;47.408;18.940;2022-11-20T05:33:50;2.66;93.19
70336;SHT31;57756;47.408;18.940;2022-11-20T05:36:16;2.65;92.92
70336;SHT31;57756;47.408;18.940;2022-11-20T05:38:42;2.64;92.78
70336;SHT31;57756;47.408;18.940;2022-11-20T05:41:15;2.66;92.95
70336;SHT31;57756;47.408;18.940;2022-11-20T05:43:42;2.69;92.87
70336;SHT31;57756;47.408;18.940;2022-11-20T05:46:11;2.66;93.96
70336;SHT31;57756;47.408;18.940;2022-11-20T05:48:38;2.69;93.29
70336;SHT31;57756;47.408;18.940;2022-11-20T05:51:06;2.68;93.75
70336;SHT31;57756;47.408;18.940;2022-11-20T05:53:33;2.71;94.01
70336;SHT31;57756;47.408;18.940;2022-11-20T05:56:09;2.74;93.78
70336;SHT31;57756;47.408;18.940;2022-11-20T05:58:36;2.78;93.71
70336;SHT31;57756;47.408;18.940;2022-11-20T06:03:31;2.78;93.27
70336;SHT31;57756;47.408;18.940;2022-11-20T06:05:58;2.76;93.26
70336;SHT31;57756;47.408;18.940;2022-11-20T06:08:24;2.71;92.08
70336;SHT31;57756;47.408;18.940;2022-11-20T06:10:49;2.65;92.35
70336;SHT31;57756;47.408;18.940;2022-11-20T06:13:15;2.69;92.45
70336;SHT31;57756;47.408;18.940;2022-11-20T06:15:40;2.74;91.67
70336;SHT31;57756;47.408;18.940;2022-11-20T06:18:06;2.74;93.04
70336;SHT31;57756;47.408;18.940;2022-11-20T06:20:31;2.71;93.08
70336;SHT31;57756;47.408;18.940;2022-11-20T06:22:56;2.78;92.96
70336;SHT31;57756;47.408;18.940;2022-11-20T06:25:22;2.72;92.59
70336;SHT31;57756;47.408;18.940;2022-11-20T06:27:47;2.74;92.84
70336;SHT31;57756;47.408;18.940;2022-11-20T06:30:13;2.76;92.76
70336;SHT31;57756;47.408;18.940;2022-11-20T06:32:38;2.78;91.64
70336;SHT31;57756;47.408;18.940;2022-11-20T06:35:04;2.84;92.20
70336;SHT31;57756;47.408;18.940;2022-11-20T06:37:29;2.85;91.99
70336;SHT31;57756;47.408;18.940;2022-11-20T06:39:55;2.88;92.45
70336;SHT31;57756;47.408;18.940;2022-11-20T06:42:20;2.92;90.47
70336;SHT31;57756;47.408;18.940;2022-11-20T06:44:46;2.89;91.18
70336;SHT31;57756;47.408;18.940;2022-11-20T06:47:11;2.92;91.37
70336;SHT31;57756;47.408;18.940;2022-11-20T06:49:37;2.99;91.49
70336;SHT31;57756;47.408;18.940;2022-11-20T06:52:04;3.00;91.53
70336;SHT31;57756;47.408;18.940;2022-11-20T06:54:29;3.03;91.32
70336;SHT31;57756;47.408;18.940;2022-11-20T06:56:55;3.09;89.24
70336;SHT31;57756;47.408;18.940;2022-11-20T06:59:20;3.09;90.20
70336;SHT31;57756;47.408;18.940;2022-11-20T07:01:46;3.17;89.68
70336;SHT31;57756;47.408;18.940;2022-11-20T07:04:12;3.17;89.46
70336;SHT31;57756;47.408;18.940;2022-11-20T07:06:38;3.13;89.72
70336;SHT31;57756;47.408;18.940;2022-11-20T07:09:03;3.20;90.19
70336;SHT31;57756;47.408;18.940;2022-11-20T07:11:29;3.22;90.74
70336;SHT31;57756;47.408;18.940;2022-11-20T07:13:54;3.24;89.87
70336;SHT31;57756;47.408;18.940;2022-11-20T07:16:19;3.31;91.43
70336;SHT31;57756;47.408;18.940;2022-11-20T07:18:45;3.34;90.14
70336;SHT31;57756;47.408;18.940;2022-11-20T07:21:11;3.35;90.84
70336;SHT31;57756;47.408;18.940;2022-11-20T07:23:36;3.37;90.19
70336;SHT31;57756;47.408;18.940;2022-11-20T07:26:07;3.37;92.16
70336;SHT31;57756;47.408;18.940;2022-11-20T07:28:33;3.38;93.05
70336;SHT31;57756;47.408;18.940;2022-11-20T07:30:59;3.40;92.79
70336;SHT31;57756;47.408;18.940;2022-11-20T07:33:24;3.37;93.71
70336;SHT31;57756;47.408;18.940;2022-11-20T07:35:50;3.33;93.34
70336;SHT31;57756;47.408;18.940;2022-11-20T07:38:15;3.35;93.81
70336;SHT31;57756;47.408;18.940;2022-11-20T07:40:41;3.37;93.45
70336;SHT31;57756;47.408;18.940;2022-11-20T07:43:06;3.35;92.91
70336;SHT31;57756;47.408;18.940;2022-11-20T07:45:32;3.31;93.42
70336;SHT31;57756;47.408;18.940;2022-11-20T07:47:57;3.33;93.55
70336;SHT31;57756;47.408;18.940;2022-11-20T07:50:23;3.35;93.78
70336;SHT31;57756;47.408;18.940;2022-11-20T07:52:48;3.27;94.36
70336;SHT31;57756;47.408;18.940;2022-11-20T07:55:14;3.33;94.65
70336;SHT31;57756;47.408;18.940;2022-11-20T07:57:40;3.35;94.63
70336;SHT31;57756;47.408;18.940;2022-11-20T08:00:08;3.37;94.87
70336;SHT31;57756;47.408;18.940;2022-11-20T08:02:42;3.38;94.56
70336;SHT31;57756;47.408;18.940;2022-11-20T08:05:09;3.43;94.33
70336;SHT31;57756;47.408;18.940;2022-11-20T08:07:38;3.50;94.13
70336;SHT31;57756;47.408;18.940;2022-11-20T08:10:05;3.47;94.01
70336;SHT31;57756;47.408;18.940;2022-11-20T08:12:31;3.55;94.48
70336;SHT31;57756;47.408;18.940;2022-11-20T08:15:15;3.61;93.85
70336;SHT31;57756;47.408;18.940;2022-11-20T08:17:40;3.68;94.08
70336;SHT31;57756;47.408;18.940;2022-11-20T08:20:06;3.75;93.93
70336;SHT31;57756;47.408;18.940;2022-11-20T08:22:32;3.82;94.39
70336;SHT31;57756;47.408;18.940;2022-11-20T08:24:57;3.89;94.41
70336;SHT31;57756;47.408;18.940;2022-11-20T08:27:23;3.99;94.47
70336;SHT31;57756;47.408;18.940;2022-11-20T08:29:48;4.09;94.62
70336;SHT31;57756;47.408;18.940;2022-11-20T08:32:13;4.14;92.88
70336;SHT31;57756;47.408;18.940;2022-11-20T08:34:39;4.29;93.72
70336;SHT31;57756;47.408;18.940;2022-11-20T08:37:05;4.32;91.84
70336;SHT31;57756;47.408;18.940;2022-11-20T08:39:30;4.44;92.62
70336;SHT31;57756;47.408;18.940;2022-11-20T08:41:56;4.50;92.58
70336;SHT31;57756;47.408;18.940;2022-11-20T08:44:22;4.53;92.44
70336;SHT31;57756;47.408;18.940;2022-11-20T08:46:47;4.62;91.63
70336;SHT31;57756;47.408;18.940;2022-11-20T08:49:13;4.74;91.50
70336;SHT31;57756;47.408;18.940;2022-11-20T08:51:39;4.78;90.37
70336;SHT31;57756;47.408;18.940;2022-11-20T08:54:05;4.85;91.30
70336;SHT31;57756;47.408;18.940;2022-11-20T08:56:31;4.89;92.14
70336;SHT31;57756;47.408;18.940;2022-11-20T08:58:57;4.92;92.45
70336;SHT31;57756;47.408;18.940;2022-11-20T09:01:25;4.93;92.88
70336;SHT31;57756;47.408;18.940;2022-11-20T09:03:50;5.00;93.13
70336;SHT31;57756;47.408;18.940;2022-11-20T09:06:16;5.05;91.88
70336;SHT31;57756;47.408;18.940;2022-11-20T09:08:42;5.08;90.66
70336;SHT31;57756;47.408;18.940;2022-11-20T09:11:08;5.15;92.28
70336;SHT31;57756;47.408;18.940;2022-11-20T09:13:35;5.16;91.69
70336;SHT31;57756;47.408;18.940;2022-11-20T09:16:06;5.19;91.25
70336;SHT31;57756;47.408;18.940;2022-11-20T09:18:33;5.19;90.79
70336;SHT31;57756;47.408;18.940;2022-11-20T09:21:03;5.23;90.48
70336;SHT31;57756;47.408;18.940;2022-11-20T09:23:34;5.29;91.32
70336;SHT31;57756;47.408;18.940;2022-11-20T09:26:13;5.32;90.82
70336;SHT31;57756;47.408;18.940;2022-11-20T09:28:39;5.34;91.63
70336;SHT31;57756;47.408;18.940;2022-11-20T09:31:09;5.37;91.13
70336;SHT31;57756;47.408;18.940;2022-11-20T09:33:35;5.47;90.45
70336;SHT31;57756;47.408;18.940;2022-11-20T09:47:46;5.67;88.13
70336;SHT31;57756;47.408;18.940;2022-11-20T09:56:01;5.73;88.45
70336;SHT31;57756;47.408;18.940;2022-11-20T09:58:40;5.77;88.95
70336;SHT31;57756;47.408;18.940;2022-11-20T10:01:16;5.78;87.77
70336;SHT31;57756;47.408;18.940;2022-11-20T10:06:14;5.81;87.28
70336;SHT31;57756;47.408;18.940;2022-11-20T10:08:49;5.81;86.57
70336;SHT31;57756;47.408;18.940;2022-11-20T10:11:35;5.87;87.34
70336;SHT31;57756;47.408;18.940;2022-11-20T10:28:59;6.16;85.08
70336;SHT31;57756;47.408;18.940;2022-11-20T10:31:34;6.19;85.53
70336;SHT31;57756;47.408;18.940;2022-11-20T10:34:05;6.12;86.51
70336;SHT31;57756;47.408;18.940;2022-11-20T10:36:40;6.13;85.88
70336;SHT31;57756;47.408;18.940;2022-11-20T10:39:18;6.06;86.27
70336;SHT31;57756;47.408;18.940;2022-11-20T10:41:50;6.15;86.16
70336;SHT31;57756;47.408;18.940;2022-11-20T10:44:20;6.19;87.52
70336;SHT31;57756;47.408;18.940;2022-11-20T10:47:15;6.39;85.21
70336;SHT31;57756;47.408;18.940;2022-11-20T10:49:43;6.37;85.35
70336;SHT31;57756;47.408;18.940;2022-11-20T10:54:49;6.37;85.60
70336;SHT31;57756;47.408;18.940;2022-11-20T10:59:51;6.30;86.18
70336;SHT31;57756;47.408;18.940;2022-11-20T11:02:22;6.36;87.02
70336;SHT31;57756;47.408;18.940;2022-11-20T11:04:52;6.39;87.33
70336;SHT31;57756;47.408;18.940;2022-11-20T11:07:27;6.47;86.48
70336;SHT31;57756;47.408;18.940;2022-11-20T11:09:56;6.56;86.96
70336;SHT31;57756;47.408;18.940;2022-11-20T11:12:24;6.54;86.63
70336;SHT31;57756;47.408;18.940;2022-11-20T11:14:52;6.57;85.97
70336;SHT31;57756;47.408;18.940;2022-11-20T11:17:30;6.57;84.95
70336;SHT31;57756;47.408;18.940;2022-11-20T11:22:31;6.49;84.42
70336;SHT31;57756;47.408;18.940;2022-11-20T11:25:00;6.53;85.23
70336;SHT31;57756;47.408;18.940;2022-11-20T11:27:26;6.49;85.78
70336;SHT31;57756;47.408;18.940;2022-11-20T11:30:12;6.47;85.16
70336;SHT31;57756;47.408;18.940;2022-11-20T11:32:39;6.56;85.93
70336;SHT31;57756;47.408;18.940;2022-11-20T11:35:06;6.58;85.45
70336;SHT31;57756;47.408;18.940;2022-11-20T11:37:37;6.51;85.63
70336;SHT31;57756;47.408;18.940;2022-11-20T11:40:04;6.50;85.13
70336;SHT31;57756;47.408;18.940;2022-11-20T11:42:31;6.51;86.23
70336;SHT31;57756;47.408;18.940;2022-11-20T11:44:59;6.53;85.72
70336;SHT31;57756;47.408;18.940;2022-11-20T11:47:37;6.37;85.63
70336;SHT31;57756;47.408;18.940;2022-11-20T11:50:21;6.44;85.73
70336;SHT31;57756;47.408;18.940;2022-11-20T11:53:12;6.44;85.91
70336;SHT31;57756;47.408;18.940;2022-11-20T11:55:43;6.49;86.74
70336;SHT31;57756;47.408;18.940;2022-11-20T11:58:11;6.54;85.97
70336;SHT31;57756;47.408;18.940;2022-11-20T12:00:41;6.64;86.27
70336;SHT31;57756;47.408;18.940;2022-11-20T12:03:25;6.70;85.44
70336;SHT31;57756;47.408;18.940;2022-11-20T12:06:02;6.71;85.89
70336;SHT31;57756;47.408;18.940;2022-11-20T12:11:12;6.80;85.64
70336;SHT31;57756;47.408;18.940;2022-11-20T12:16:37;6.78;86.10
70336;SHT31;57756;47.408;18.940;2022-11-20T12:19:07;6.84;86.01
70336;SHT31;57756;47.408;18.940;2022-11-20T12:32:59;6.53;87.62
70336;SHT31;57756;47.408;18.940;2022-11-20T12:38:50;6.56;86.52
70336;SHT31;57756;47.408;18.940;2022-11-20T12:50:51;6.77;86.79
70336;SHT31;57756;47.408;18.940;2022-11-20T12:53:38;6.76;85.47
70336;SHT31;57756;47.408;18.940;2022-11-20T13:05:09;6.76;86.63
70336;SHT31;57756;47.408;18.940;2022-11-20T13:07:41;6.83;86.77
70336;SHT31;57756;47.408;18.940;2022-11-20T13:10:21;6.83;85.94
70336;SHT31;57756;47.408;18.940;2022-11-20T13:12:57;6.92;85.76
70336;SHT31;57756;47.408;18.940;2022-11-20T13:15:43;6.80;84.96
70336;SHT31;57756;47.408;18.940;2022-11-20T13:18:13;6.81;86.77
70336;SHT31;57756;47.408;18.940;2022-11-20T13:20:43;6.85;86.87
70336;SHT31;57756;47.408;18.940;2022-11-20T13:23:09;6.83;85.96
70336;SHT31;57756;47.408;18.940;2022-11-20T13:25:37;6.80;86.49
70336;SHT31;57756;47.408;18.940;2022-11-20T13:28:59;6.84;86.90
70336;SHT31;57756;47.408;18.940;2022-11-20T13:30:52;6.78;86.40
70336;SHT31;57756;47.408;18.940;2022-11-20T13:33:29;6.73;85.88
70336;SHT31;57756;47.408;18.940;2022-11-20T13:38:22;6.67;85.68
70336;SHT31;57756;47.408;18.940;2022-11-20T13:40:58;6.60;86.21
70336;SHT31;57756;47.408;18.940;2022-11-20T13:43:36;6.54;86.83
70336;SHT31;57756;47.408;18.940;2022-11-20T13:46:05;6.53;86.48
70336;SHT31;57756;47.408;18.940;2022-11-20T13:48:39;6.53;86.23
70336;SHT31;57756;47.408;18.940;2022-11-20T13:53:45;6.51;86.86
70336;SHT31;57756;47.408;18.940;2022-11-20T13:59:24;6.41;87.11
70336;SHT31;57756;47.408;18.940;2022-11-20T14:01:53;6.41;87.27
70336;SHT31;57756;47.408;18.940;2022-11-20T14:04:33;6.39;87.20
70336;SHT31;57756;47.408;18.940;2022-11-20T14:06:59;6.32;87.34
70336;SHT31;57756;47.408;18.940;2022-11-20T14:09:27;6.26;87.41
70336;SHT31;57756;47.408;18.940;2022-11-20T14:11:52;6.22;87.55
70336;SHT31;57756;47.408;18.940;2022-11-20T14:14:32;6.20;87.31
70336;SHT31;57756;47.408;18.940;2022-11-20T14:17:15;6.16;87.55
70336;SHT31;57756;47.408;18.940;2022-11-20T14:19:44;6.20;87.77
70336;SHT31;57756;47.408;18.940;2022-11-20T14:22:47;6.19;87.22
70336;SHT31;57756;47.408;18.940;2022-11-20T14:27:45;6.09;88.05
70336;SHT31;57756;47.408;18.940;2022-11-20T14:30:17;6.11;87.75
70336;SHT31;57756;47.408;18.940;2022-11-20T14:32:45;6.05;88.14
70336;SHT31;57756;47.408;18.940;2022-11-20T14:35:28;6.01;88.03
70336;SHT31;57756;47.408;18.940;2022-11-20T14:37:55;5.94;88.35
70336;SHT31;57756;47.408;18.940;2022-11-20T14:42:47;5.91;88.62
70336;SHT31;57756;47.408;18.940;2022-11-20T14:45:13;5.95;88.65
70336;SHT31;57756;47.408;18.940;2022-11-20T14:47:39;5.81;88.84
70336;SHT31;57756;47.408;18.940;2022-11-20T14:50:13;5.79;89.07
70336;SHT31;57756;47.408;18.940;2022-11-20T14:52:50;5.78;89.00
70336;SHT31;57756;47.408;18.940;2022-11-20T14:55:25;5.77;89.13
70336;SHT31;57756;47.408;18.940;2022-11-20T14:57:55;5.64;89.40
70336;SHT31;57756;47.408;18.940;2022-11-20T15:00:22;5.61;89.83
70336;SHT31;57756;47.408;18.940;2022-11-20T15:02:49;5.60;89.63
70336;SHT31;57756;47.408;18.940;2022-11-20T15:05:18;5.46;90.15
70336;SHT31;57756;47.408;18.940;2022-11-20T15:07:46;5.43;90.40
70336;SHT31;57756;47.408;18.940;2022-11-20T15:12:53;5.25;90.87
70336;SHT31;57756;47.408;18.940;2022-11-20T15:18:14;5.12;90.82
70336;SHT31;57756;47.408;18.940;2022-11-20T15:20:41;5.08;90.96
70336;SHT31;57756;47.408;18.940;2022-11-20T15:23:26;5.06;90.95
70336;SHT31;57756;47.408;18.940;2022-11-20T15:25:52;5.04;91.06
70336;SHT31;57756;47.408;18.940;2022-11-20T15:28:27;4.96;91.26
70336;SHT31;57756;47.408;18.940;2022-11-20T15:30:54;4.91;91.45
70336;SHT31;57756;47.408;18.940;2022-11-20T15:33:20;4.85;91.55
70336;SHT31;57756;47.408;18.940;2022-11-20T15:35:46;4.74;91.82
70336;SHT31;57756;47.408;18.940;2022-11-20T15:38:11;4.65;91.83
70336;SHT31;57756;47.408;18.940;2022-11-20T15:40:37;4.58;92.29
70336;SHT31;57756;47.408;18.940;2022-11-20T15:43:06;4.50;92.34
70336;SHT31;57756;47.408;18.940;2022-11-20T15:45:49;4.37;92.60
70336;SHT31;57756;47.408;18.940;2022-11-20T15:48:16;4.34;92.80
70336;SHT31;57756;47.408;18.940;2022-11-20T15:50:55;4.29;92.71
70336;SHT31;57756;47.408;18.940;2022-11-20T15:53:22;4.23;93.19
70336;SHT31;57756;47.408;18.940;2022-11-20T15:55:48;4.16;93.29
70336;SHT31;57756;47.408;18.940;2022-11-20T15:58:13;4.09;93.60
70336;SHT31;57756;47.408;18.940;2022-11-20T16:00:39;4.02;93.65
70336;SHT31;57756;47.408;18.940;2022-11-20T16:03:04;3.96;93.63
70336;SHT31;57756;47.408;18.940;2022-11-20T16:05:31;3.92;93.58
70336;SHT31;57756;47.408;18.940;2022-11-20T16:07:57;3.86;94.06
70336;SHT31;57756;47.408;18.940;2022-11-20T16:10:23;3.77;93.99
70336;SHT31;57756;47.408;18.940;2022-11-20T16:12:48;3.78;94.34
70336;SHT31;57756;47.408;18.940;2022-11-20T16:15:32;3.72;94.14
70336;SHT31;57756;47.408;18.940;2022-11-20T16:18:12;3.62;94.60
70336;SHT31;57756;47.408;18.940;2022-11-20T16:20:38;3.62;94.57
70336;SHT31;57756;47.408;18.940;2022-11-20T16:23:04;3.64;94.41
70336;SHT31;57756;47.408;18.940;2022-11-20T16:25:30;3.62;94.69
70336;SHT31;57756;47.408;18.940;2022-11-20T16:27:55;3.62;94.40
70336;SHT31;57756;47.408;18.940;2022-11-20T16:30:21;3.60;94.77
70336;SHT31;57756;47.408;18.940;2022-11-20T16:32:46;3.60;94.76
70336;SHT31;57756;47.408;18.940;2022-11-20T16:35:12;3.58;95.21
70336;SHT31;57756;47.408;18.940;2022-11-20T16:37:37;3.58;95.03
70336;SHT31;57756;47.408;18.940;2022-11-20T16:40:04;3.55;95.21
70336;SHT31;57756;47.408;18.940;2022-11-20T16:42:35;3.57;95.39
70336;SHT31;57756;47.408;18.940;2022-11-20T16:45:01;3.50;95.91
70336;SHT31;57756;47.408;18.940;2022-11-20T16:47:26;3.47;95.95
70336;SHT31;57756;47.408;18.940;2022-11-20T16:49:52;3.47;95.89
70336;SHT31;57756;47.408;18.940;2022-11-20T16:52:18;3.44;95.76
70336;SHT31;57756;47.408;18.940;2022-11-20T16:54:43;3.38;95.81
70336;SHT31;57756;47.408;18.940;2022-11-20T16:57:09;3.34;95.69
70336;SHT31;57756;47.408;18.940;2022-11-20T16:59:34;3.31;96.13
70336;SHT31;57756;47.408;18.940;2022-11-20T17:01:59;3.28;95.95
70336;SHT31;57756;47.408;18.940;2022-11-20T17:04:25;3.26;96.17
70336;SHT31;57756;47.408;18.940;2022-11-20T17:06:51;3.24;95.91
70336;SHT31;57756;47.408;18.940;2022-11-20T17:09:16;3.16;96.10
70336;SHT31;57756;47.408;18.940;2022-11-20T17:11:42;3.12;95.97
70336;SHT31;57756;47.408;18.940;2022-11-20T17:14:09;3.09;95.98
70336;SHT31;57756;47.408;18.940;2022-11-20T17:16:36;3.09;96.19
70336;SHT31;57756;47.408;18.940;2022-11-20T17:19:02;3.02;95.97
70336;SHT31;57756;47.408;18.940;2022-11-20T17:21:30;2.93;96.05
70336;SHT31;57756;47.408;18.940;2022-11-20T17:23:59;2.93;95.84